Time;durP1;ratioP1;P1;durP2;ratioP2;P2;SDS_P1;SDS_P2;PMS_P1;PMS_P2;Temp;Humidity;BMP_temperature;BMP_pressure;BME280_temperature;BME280_humidity;BME280_pressure;Samples;Min_cycle;Max_cycle;Signal;HPM_P1;HPM_P2
2023/12/27 00:01:13;;;;;;;;;14.00;12.67;;;;;;;;5088227;28;28575;-81
2023/12/27 00:03:38;;;;;;;;;11.67;10.67;;;;;;;;5097572;27;29154;-78
2023/12/27 00:06:03;;;;;;;;;12.33;9.67;;;;;;;;5085459;27;28461;-80
2023/12/27 00:08:29;;;;;;;;;18.00;11.67;;;;;;;;5087137;28;28844;-79
2023/12/27 00:10:54;;;;;;;;;11.67;11.00;;;;;;;;5087373;28;28554;-80
2023/12/27 00:13:19;;;;;;;;;11.33;10.67;;;;;;;;5087695;28;28488;-80
2023/12/27 00:15:45;;;;;;;;;10.00;10.00;;;;;;;;5087940;28;28456;-81
2023/12/27 00:18:11;;;;;;;;;9.33;9.33;;;;;;;;5069089;28;28734;-79
2023/12/27 00:20:36;;;;;;;;;14.33;10.67;;;;;;;;5087777;28;28686;-80
2023/12/27 00:23:01;;;;;;;;;11.33;10.67;;;;;;;;5087990;28;28813;-80
2023/12/27 00:25:27;;;;;;;;;14.67;14.67;;;;;;;;5088311;28;28554;-79
2023/12/27 00:27:52;;;;;;;;;8.00;8.00;;;;;;;;5087761;28;28618;-81
2023/12/27 00:30:18;;;;;;;;;11.33;11.33;;;;;;;;5088088;28;28471;-81
2023/12/27 00:32:43;;;;;;;;;14.67;11.67;;;;;;;;5087169;28;29125;-81
2023/12/27 00:35:08;;;;;;;;;9.00;9.00;;;;;;;;5088040;28;28664;-80
2023/12/27 00:37:34;;;;;;;;;15.00;11.67;;;;;;;;5087606;28;28599;-81
2023/12/27 00:39:59;;;;;;;;;11.33;10.00;;;;;;;;5087997;28;28745;-80
2023/12/27 00:42:27;;;;;;;;;10.67;8.67;;;;;;;;5088228;28;28842;-80
2023/12/27 00:44:52;;;;;;;;;14.67;10.00;;;;;;;;5087427;28;29888;-81
2023/12/27 00:47:18;;;;;;;;;16.00;12.33;;;;;;;;5087489;28;28780;-80
2023/12/27 00:49:43;;;;;;;;;14.67;10.00;;;;;;;;5088133;28;28448;-82
2023/12/27 00:52:10;;;;;;;;;13.67;11.33;;;;;;;;5069129;28;28637;-80
2023/12/27 00:54:36;;;;;;;;;11.00;10.33;;;;;;;;5083559;28;29705;-80
2023/12/27 00:57:01;;;;;;;;;8.33;8.33;;;;;;;;5088174;28;28411;-79
2023/12/27 00:59:26;;;;;;;;;13.33;10.00;;;;;;;;5085883;28;28586;-78
2023/12/27 01:01:52;;;;;;;;;13.67;11.67;;;;;;;;5087563;27;28605;-80
2023/12/27 01:04:18;;;;;;;;;19.33;13.33;;;;;;;;5083839;28;29028;-80
2023/12/27 01:06:43;;;;;;;;;10.33;10.33;;;;;;;;5067713;28;28588;-79
2023/12/27 01:09:08;;;;;;;;;9.67;9.00;;;;;;;;5100047;27;28800;-79
2023/12/27 01:11:33;;;;;;;;;11.00;11.00;;;;;;;;5085955;28;29524;-79
2023/12/27 01:13:59;;;;;;;;;16.33;14.67;;;;;;;;5090717;27;29576;-77
2023/12/27 01:16:25;;;;;;;;;8.33;8.33;;;;;;;;5086552;28;29350;-79
2023/12/27 01:18:50;;;;;;;;;12.33;10.00;;;;;;;;5085528;28;28560;-79
2023/12/27 01:21:15;;;;;;;;;14.00;9.67;;;;;;;;5069815;28;29370;-79
2023/12/27 01:23:41;;;;;;;;;17.67;12.33;;;;;;;;5087263;28;28820;-80
2023/12/27 01:26:06;;;;;;;;;13.67;11.00;;;;;;;;5087812;28;28947;-79
2023/12/27 01:28:32;;;;;;;;;13.00;10.33;;;;;;;;5087907;28;28847;-80
2023/12/27 01:30:57;;;;;;;;;13.67;10.33;;;;;;;;5086209;28;28799;-77
2023/12/27 01:33:23;;;;;;;;;10.33;9.33;;;;;;;;5090053;27;28534;-80
2023/12/27 01:35:48;;;;;;;;;11.67;10.33;;;;;;;;5067926;28;28705;-79
2023/12/27 01:38:13;;;;;;;;;12.00;11.67;;;;;;;;5087475;28;28760;-79
2023/12/27 01:40:46;;;;;;;;;13.67;10.67;;;;;;;;5091106;28;28559;-78
2023/12/27 01:43:11;;;;;;;;;12.00;9.67;;;;;;;;5079019;28;28686;-78
2023/12/27 01:45:37;;;;;;;;;8.67;7.67;;;;;;;;5091958;28;29076;-79
2023/12/27 01:48:02;;;;;;;;;12.00;8.33;;;;;;;;5073804;28;28400;-79
2023/12/27 01:50:27;;;;;;;;;14.33;10.00;;;;;;;;5077610;28;28623;-78
2023/12/27 01:52:53;;;;;;;;;11.33;11.00;;;;;;;;5097894;28;28596;-79
2023/12/27 01:55:19;;;;;;;;;10.00;7.33;;;;;;;;5091959;27;28908;-78
2023/12/27 01:57:46;;;;;;;;;14.00;9.67;;;;;;;;5097719;27;28353;-78
2023/12/27 02:00:12;;;;;;;;;10.67;9.33;;;;;;;;5097422;28;29369;-79
2023/12/27 02:02:38;;;;;;;;;9.00;8.67;;;;;;;;5096823;27;30095;-79
2023/12/27 02:05:03;;;;;;;;;8.67;8.67;;;;;;;;5089193;27;28560;-80
2023/12/27 02:07:29;;;;;;;;;9.67;8.67;;;;;;;;5091792;28;28918;-79
2023/12/27 02:09:54;;;;;;;;;9.67;9.67;;;;;;;;5089261;28;28425;-82
2023/12/27 02:12:29;;;;;;;;;12.67;10.67;;;;;;;;5072335;28;29950;-80
2023/12/27 02:14:55;;;;;;;;;9.00;8.33;;;;;;;;5090466;28;28584;-80
2023/12/27 02:17:21;;;;;;;;;14.00;9.67;;;;;;;;5089912;28;28591;-79
2023/12/27 02:19:46;;;;;;;;;6.33;5.33;;;;;;;;5089999;28;28889;-80
2023/12/27 02:22:12;;;;;;;;;10.67;9.33;;;;;;;;5063348;28;29949;-79
2023/12/27 02:24:37;;;;;;;;;9.67;9.00;;;;;;;;5085082;28;28745;-80
2023/12/27 02:27:03;;;;;;;;;7.67;5.67;;;;;;;;5066801;28;28580;-80
2023/12/27 02:29:28;;;;;;;;;14.00;8.33;;;;;;;;5081496;27;28527;-79
2023/12/27 02:31:53;;;;;;;;;9.33;7.33;;;;;;;;5089117;28;28372;-80
2023/12/27 02:34:19;;;;;;;;;11.00;9.67;;;;;;;;5089909;28;28949;-80
2023/12/27 02:36:44;;;;;;;;;8.00;8.00;;;;;;;;5088034;27;28464;-77
2023/12/27 02:39:09;;;;;;;;;8.33;8.33;;;;;;;;5089576;28;28429;-77
2023/12/27 02:41:34;;;;;;;;;9.00;9.00;;;;;;;;5089655;28;28939;-79
2023/12/27 02:44:00;;;;;;;;;6.67;4.33;;;;;;;;5093169;27;28794;-81
2023/12/27 02:46:25;;;;;;;;;9.33;8.00;;;;;;;;5098930;27;28492;-80
2023/12/27 02:48:50;;;;;;;;;10.33;8.67;;;;;;;;5092615;27;29096;-81
2023/12/27 02:51:16;;;;;;;;;11.33;8.00;;;;;;;;5089891;28;28808;-81
2023/12/27 02:53:41;;;;;;;;;9.00;8.00;;;;;;;;5089226;27;28425;-79
2023/12/27 02:56:08;;;;;;;;;11.00;7.67;;;;;;;;5081404;28;28423;-80
2023/12/27 02:58:33;;;;;;;;;7.67;6.67;;;;;;;;5090047;28;28449;-80
2023/12/27 03:00:58;;;;;;;;;8.67;5.33;;;;;;;;5082350;27;28638;-80
2023/12/27 03:03:23;;;;;;;;;6.50;6.50;;;;;;;;5076859;28;29052;-80
2023/12/27 03:05:49;;;;;;;;;13.00;9.00;;;;;;;;5087683;28;28599;-81
2023/12/27 03:08:14;;;;;;;;;10.00;9.67;;;;;;;;5088355;28;28950;-80
2023/12/27 03:10:39;;;;;;;;;6.00;5.33;;;;;;;;5088933;28;28693;-79
2023/12/27 03:13:05;;;;;;;;;10.67;7.33;;;;;;;;5088613;28;28947;-81
2023/12/27 03:15:30;;;;;;;;;6.67;5.00;;;;;;;;5089948;28;28649;-80
2023/12/27 03:17:55;;;;;;;;;9.33;8.33;;;;;;;;5089070;27;28432;-80
2023/12/27 03:20:20;;;;;;;;;8.33;8.00;;;;;;;;5088741;28;28578;-80
2023/12/27 03:22:46;;;;;;;;;9.33;9.00;;;;;;;;5070919;28;28682;-80
2023/12/27 03:25:11;;;;;;;;;10.67;7.33;;;;;;;;5070888;28;28411;-78
2023/12/27 03:27:36;;;;;;;;;12.00;8.67;;;;;;;;5088251;28;28557;-79
2023/12/27 03:30:02;;;;;;;;;7.00;6.33;;;;;;;;5088558;28;28696;-80
2023/12/27 03:32:27;;;;;;;;;6.67;6.67;;;;;;;;5088587;28;28736;-79
2023/12/27 03:34:52;;;;;;;;;5.33;5.00;;;;;;;;5088868;28;28669;-81
2023/12/27 03:37:17;;;;;;;;;8.67;8.33;;;;;;;;5086667;28;29697;-79
2023/12/27 03:39:43;;;;;;;;;9.00;7.33;;;;;;;;5094894;27;28700;-78
2023/12/27 03:42:09;;;;;;;;;11.00;8.67;;;;;;;;5070912;28;28688;-77
2023/12/27 03:44:34;;;;;;;;;8.00;5.67;;;;;;;;5088729;28;28693;-77
2023/12/27 03:46:59;;;;;;;;;8.00;8.00;;;;;;;;5087833;28;29000;-79
2023/12/27 03:49:25;;;;;;;;;9.00;6.67;;;;;;;;5087105;28;28556;-77
2023/12/27 03:51:50;;;;;;;;;8.67;6.67;;;;;;;;5083935;28;28623;-79
2023/12/27 03:54:16;;;;;;;;;7.33;5.33;;;;;;;;5088461;28;28367;-79
2023/12/27 03:56:43;;;;;;;;;9.67;6.67;;;;;;;;5081778;28;28872;-81
2023/12/27 03:59:08;;;;;;;;;8.00;7.33;;;;;;;;5087372;28;30329;-78
2023/12/27 04:01:33;;;;;;;;;7.67;5.67;;;;;;;;5088693;28;28511;-79
2023/12/27 04:03:58;;;;;;;;;5.67;4.00;;;;;;;;5087867;27;28719;-79
2023/12/27 04:06:24;;;;;;;;;7.67;6.00;;;;;;;;5088414;28;28910;-80
2023/12/27 04:08:49;;;;;;;;;5.33;5.33;;;;;;;;5088480;28;28520;-78
2023/12/27 04:11:15;;;;;;;;;7.00;7.00;;;;;;;;5088006;28;28595;-81
2023/12/27 04:13:40;;;;;;;;;9.67;8.67;;;;;;;;5086037;28;28591;-79
2023/12/27 04:16:05;;;;;;;;;6.00;6.00;;;;;;;;5085363;28;28949;-79
2023/12/27 04:18:31;;;;;;;;;8.00;7.00;;;;;;;;5087847;28;29537;-79
2023/12/27 04:20:56;;;;;;;;;8.67;7.33;;;;;;;;5086171;28;28542;-80
2023/12/27 04:23:21;;;;;;;;;7.00;5.67;;;;;;;;5087244;28;28558;-81
2023/12/27 04:25:46;;;;;;;;;6.00;5.00;;;;;;;;5087518;28;28551;-79
2023/12/27 04:28:12;;;;;;;;;6.67;5.67;;;;;;;;5087977;28;28867;-79
2023/12/27 04:30:37;;;;;;;;;9.00;6.67;;;;;;;;5086136;28;28913;-80
2023/12/27 04:33:02;;;;;;;;;8.33;5.33;;;;;;;;5088428;28;28903;-78
2023/12/27 04:35:28;;;;;;;;;5.00;3.67;;;;;;;;5088713;28;28727;-82
2023/12/27 04:37:53;;;;;;;;;8.67;7.33;;;;;;;;5088282;28;28547;-79
2023/12/27 04:40:18;;;;;;;;;5.67;3.33;;;;;;;;5080873;28;28614;-79
2023/12/27 04:42:44;;;;;;;;;6.67;5.67;;;;;;;;5087843;28;28503;-79
2023/12/27 04:45:09;;;;;;;;;6.67;6.67;;;;;;;;5088093;28;28879;-79
2023/12/27 04:47:34;;;;;;;;;6.33;6.33;;;;;;;;5088029;28;28816;-78
2023/12/27 04:50:00;;;;;;;;;7.00;6.67;;;;;;;;5093235;27;28484;-79
2023/12/27 04:52:25;;;;;;;;;7.67;6.67;;;;;;;;5088298;28;28485;-79
2023/12/27 04:54:50;;;;;;;;;10.00;7.67;;;;;;;;5072139;28;30466;-76
2023/12/27 04:57:15;;;;;;;;;4.00;4.00;;;;;;;;5098241;27;29406;-80
2023/12/27 04:59:40;;;;;;;;;6.33;5.67;;;;;;;;5093200;27;28439;-79
2023/12/27 05:02:06;;;;;;;;;6.00;6.00;;;;;;;;5088792;27;28529;-79
2023/12/27 05:04:31;;;;;;;;;5.67;5.67;;;;;;;;5087053;27;28504;-79
2023/12/27 05:06:56;;;;;;;;;11.33;6.33;;;;;;;;5065656;28;29737;-78
2023/12/27 05:09:22;;;;;;;;;8.33;7.00;;;;;;;;5085083;28;28820;-79
2023/12/27 05:11:47;;;;;;;;;8.00;7.00;;;;;;;;5094503;27;28655;-78
2023/12/27 05:14:15;;;;;;;;;4.67;4.00;;;;;;;;5089953;27;28717;-78
2023/12/27 05:16:40;;;;;;;;;5.33;4.00;;;;;;;;5092477;27;28836;-76
2023/12/27 05:19:05;;;;;;;;;5.67;5.33;;;;;;;;5090420;27;28993;-79
2023/12/27 05:21:30;;;;;;;;;6.33;5.67;;;;;;;;5088361;28;29069;-77
2023/12/27 05:23:56;;;;;;;;;6.00;6.00;;;;;;;;5071002;28;29912;-79
2023/12/27 05:26:21;;;;;;;;;7.67;6.67;;;;;;;;5091444;28;28594;-80
2023/12/27 05:28:46;;;;;;;;;8.00;8.00;;;;;;;;5089618;28;28596;-78
2023/12/27 05:31:12;;;;;;;;;7.00;6.00;;;;;;;;5089681;28;28547;-78
2023/12/27 05:33:37;;;;;;;;;9.00;7.33;;;;;;;;5088595;28;28591;-79
2023/12/27 05:36:02;;;;;;;;;8.00;6.00;;;;;;;;5071987;28;30056;-80
2023/12/27 05:38:27;;;;;;;;;8.00;6.67;;;;;;;;5089823;28;28529;-79
2023/12/27 05:40:53;;;;;;;;;4.67;4.67;;;;;;;;5090308;28;28525;-78
2023/12/27 05:43:18;;;;;;;;;8.67;6.33;;;;;;;;5090189;28;29325;-79
2023/12/27 05:45:43;;;;;;;;;5.67;5.67;;;;;;;;5089620;28;29181;-78
2023/12/27 05:48:08;;;;;;;;;6.67;5.67;;;;;;;;5090437;28;28509;-78
2023/12/27 05:50:34;;;;;;;;;6.33;5.00;;;;;;;;5092716;27;28459;-80
2023/12/27 05:52:59;;;;;;;;;9.00;7.00;;;;;;;;5085917;27;28914;-80
2023/12/27 05:55:25;;;;;;;;;8.33;6.00;;;;;;;;5089305;28;28806;-80
2023/12/27 05:57:50;;;;;;;;;7.67;6.33;;;;;;;;5089786;28;28359;-81
2023/12/27 06:00:15;;;;;;;;;5.00;5.00;;;;;;;;5088919;28;28829;-80
2023/12/27 06:02:41;;;;;;;;;4.67;4.67;;;;;;;;5086372;27;28428;-80
2023/12/27 06:05:07;;;;;;;;;6.00;5.00;;;;;;;;5086481;28;28797;-81
2023/12/27 06:07:32;;;;;;;;;5.33;4.67;;;;;;;;5089278;28;28537;-81
2023/12/27 06:09:57;;;;;;;;;8.33;7.33;;;;;;;;5086377;28;28516;-81
2023/12/27 06:12:23;;;;;;;;;4.33;4.33;;;;;;;;5070369;28;29816;-82
2023/12/27 06:14:48;;;;;;;;;5.67;5.67;;;;;;;;5089011;28;28898;-81
2023/12/27 06:17:13;;;;;;;;;5.67;5.67;;;;;;;;5087966;28;29770;-80
2023/12/27 06:19:38;;;;;;;;;5.33;5.33;;;;;;;;5066880;27;28562;-77
2023/12/27 06:22:04;;;;;;;;;5.67;5.67;;;;;;;;5093114;27;29255;-78
2023/12/27 06:24:30;;;;;;;;;6.33;6.33;;;;;;;;5096909;27;28654;-81
2023/12/27 06:26:55;;;;;;;;;6.00;5.00;;;;;;;;5084502;27;28906;-79
2023/12/27 06:29:20;;;;;;;;;5.33;5.33;;;;;;;;5090328;27;28816;-81
2023/12/27 06:31:45;;;;;;;;;6.33;6.33;;;;;;;;5090168;27;28757;-78
2023/12/27 06:34:10;;;;;;;;;9.67;6.00;;;;;;;;5093168;27;28520;-78
2023/12/27 06:36:36;;;;;;;;;3.00;3.00;;;;;;;;5089907;27;28522;-78
2023/12/27 06:39:01;;;;;;;;;5.67;4.33;;;;;;;;5090005;27;28869;-78
2023/12/27 06:41:27;;;;;;;;;6.67;5.33;;;;;;;;5074765;27;29452;-77
2023/12/27 06:43:53;;;;;;;;;6.67;6.33;;;;;;;;5088058;28;28563;-79
2023/12/27 06:46:18;;;;;;;;;8.33;7.33;;;;;;;;5088807;27;28861;-80
2023/12/27 06:48:43;;;;;;;;;8.00;5.67;;;;;;;;5097095;27;28516;-79
2023/12/27 06:51:11;;;;;;;;;3.67;2.33;;;;;;;;5083294;27;28481;-80
2023/12/27 06:53:37;;;;;;;;;9.00;7.00;;;;;;;;5100600;27;28508;-84
2023/12/27 06:56:02;;;;;;;;;7.67;4.67;;;;;;;;5088184;27;28456;-79
2023/12/27 06:58:27;;;;;;;;;5.33;5.33;;;;;;;;5078232;28;28940;-77
2023/12/27 07:00:53;;;;;;;;;8.67;6.33;;;;;;;;5085576;27;29726;-79
2023/12/27 07:03:18;;;;;;;;;7.33;5.00;;;;;;;;5093873;27;28532;-83
2023/12/27 07:05:43;;;;;;;;;6.00;6.00;;;;;;;;5067211;28;28495;-84
2023/12/27 07:08:08;;;;;;;;;8.33;8.00;;;;;;;;5090584;27;27956;-72
2023/12/27 07:10:34;;;;;;;;;9.00;8.00;;;;;;;;5091485;27;29101;-73
2023/12/27 07:13:00;;;;;;;;;7.00;6.00;;;;;;;;5089056;27;28935;-75
2023/12/27 07:15:25;;;;;;;;;8.00;6.00;;;;;;;;5081750;28;28913;-75
2023/12/27 07:17:51;;;;;;;;;10.33;9.33;;;;;;;;5082555;27;28556;-74
2023/12/27 07:20:16;;;;;;;;;6.33;5.33;;;;;;;;5073090;28;29618;-75
2023/12/27 07:22:41;;;;;;;;;12.67;7.00;;;;;;;;5086871;27;28910;-73
2023/12/27 07:25:07;;;;;;;;;6.67;4.67;;;;;;;;5084275;27;28578;-72
2023/12/27 07:27:32;;;;;;;;;7.00;7.00;;;;;;;;5077315;27;28658;-73
2023/12/27 07:29:57;;;;;;;;;8.00;8.00;;;;;;;;5081427;28;28914;-74
2023/12/27 07:32:22;;;;;;;;;6.67;6.00;;;;;;;;5079202;27;28975;-74
2023/12/27 07:34:48;;;;;;;;;9.33;6.00;;;;;;;;5079855;27;28576;-73
2023/12/27 07:37:13;;;;;;;;;9.33;7.67;;;;;;;;5085476;27;28161;-76
2023/12/27 07:39:39;;;;;;;;;8.67;6.00;;;;;;;;5095253;27;28630;-73
2023/12/27 07:42:05;;;;;;;;;8.33;8.00;;;;;;;;5087071;27;29096;-72
2023/12/27 07:44:30;;;;;;;;;9.00;9.00;;;;;;;;5083001;27;28428;-72
2023/12/27 07:46:55;;;;;;;;;9.00;8.00;;;;;;;;5086115;27;29004;-74
2023/12/27 07:49:21;;;;;;;;;8.67;5.00;;;;;;;;5083269;27;28555;-74
2023/12/27 07:51:46;;;;;;;;;9.00;6.67;;;;;;;;5086196;27;29802;-72
2023/12/27 07:54:11;;;;;;;;;8.00;7.67;;;;;;;;5085417;27;28903;-73
2023/12/27 07:56:37;;;;;;;;;6.00;6.00;;;;;;;;5082060;28;28669;-72
2023/12/27 07:59:03;;;;;;;;;6.33;6.00;;;;;;;;5088325;27;29355;-72
2023/12/27 08:01:31;;;;;;;;;4.00;3.00;;;;;;;;5079981;28;28520;-73
2023/12/27 08:03:56;;;;;;;;;7.67;7.33;;;;;;;;5074945;28;28706;-73
2023/12/27 08:06:21;;;;;;;;;8.67;6.67;;;;;;;;5086263;28;28741;-73
2023/12/27 08:08:47;;;;;;;;;7.00;7.00;;;;;;;;5087168;27;28457;-73
2023/12/27 08:11:12;;;;;;;;;8.00;7.00;;;;;;;;5077527;27;28652;-73
2023/12/27 08:13:38;;;;;;;;;11.00;7.00;;;;;;;;5079659;27;28693;-74
2023/12/27 08:16:03;;;;;;;;;10.00;6.67;;;;;;;;5082166;27;28602;-73
2023/12/27 08:18:29;;;;;;;;;7.00;6.00;;;;;;;;5084474;28;28906;-73
2023/12/27 08:20:54;;;;;;;;;11.00;8.67;;;;;;;;5081609;27;28718;-74
2023/12/27 08:23:19;;;;;;;;;9.67;6.33;;;;;;;;5085844;27;29010;-75
2023/12/27 08:25:45;;;;;;;;;7.00;6.00;;;;;;;;5084151;27;28577;-72
2023/12/27 08:28:10;;;;;;;;;7.00;5.33;;;;;;;;5082505;28;28631;-73
2023/12/27 08:30:36;;;;;;;;;8.67;6.00;;;;;;;;5069311;27;28687;-74
2023/12/27 08:33:03;;;;;;;;;8.00;7.33;;;;;;;;5083842;27;28935;-74
2023/12/27 08:35:28;;;;;;;;;7.67;6.00;;;;;;;;5089492;27;28528;-72
2023/12/27 08:37:54;;;;;;;;;5.00;4.00;;;;;;;;5086219;27;29128;-75
2023/12/27 08:40:19;;;;;;;;;7.00;6.67;;;;;;;;5085992;27;28771;-74
2023/12/27 08:42:45;;;;;;;;;10.00;8.00;;;;;;;;5088762;27;28860;-74
2023/12/27 08:45:11;;;;;;;;;8.00;6.67;;;;;;;;5081218;27;28874;-72
2023/12/27 08:47:36;;;;;;;;;7.00;7.00;;;;;;;;5079293;28;29133;-72
2023/12/27 08:50:01;;;;;;;;;7.67;6.67;;;;;;;;5085224;27;29136;-73
2023/12/27 08:52:27;;;;;;;;;8.67;7.00;;;;;;;;5082955;27;28943;-73
2023/12/27 08:54:52;;;;;;;;;8.33;6.00;;;;;;;;5083928;27;28895;-73
2023/12/27 08:57:18;;;;;;;;;5.33;5.00;;;;;;;;5080642;28;29222;-73
2023/12/27 08:59:43;;;;;;;;;7.33;6.67;;;;;;;;5062759;28;28947;-75
2023/12/27 09:02:09;;;;;;;;;7.67;6.33;;;;;;;;5084525;27;28642;-72
2023/12/27 09:04:34;;;;;;;;;5.67;4.33;;;;;;;;5083149;27;28582;-74
2023/12/27 09:06:59;;;;;;;;;7.33;4.67;;;;;;;;5078724;27;29192;-73
2023/12/27 09:09:24;;;;;;;;;8.00;8.00;;;;;;;;5083131;27;29002;-73
2023/12/27 09:11:50;;;;;;;;;11.33;7.67;;;;;;;;5086247;27;28756;-73
2023/12/27 09:14:15;;;;;;;;;7.67;5.67;;;;;;;;5088792;27;29234;-79
2023/12/27 09:16:41;;;;;;;;;6.33;5.33;;;;;;;;5071085;28;29348;-78
2023/12/27 09:19:07;;;;;;;;;8.33;6.00;;;;;;;;5085426;27;28533;-78
2023/12/27 09:21:33;;;;;;;;;6.67;6.67;;;;;;;;5059079;28;29618;-78
2023/12/27 09:23:58;;;;;;;;;9.00;6.00;;;;;;;;5074648;27;29002;-80
2023/12/27 09:26:23;;;;;;;;;5.33;5.33;;;;;;;;5071082;28;28800;-78
2023/12/27 09:28:48;;;;;;;;;6.00;4.67;;;;;;;;5064252;28;28904;-78
2023/12/27 09:31:16;;;;;;;;;4.00;4.00;;;;;;;;5066838;28;29559;-78
2023/12/27 09:33:42;;;;;;;;;9.67;7.67;;;;;;;;5084884;27;28503;-78
2023/12/27 09:36:08;;;;;;;;;8.00;5.33;;;;;;;;5085538;27;29289;-72
2023/12/27 09:38:33;;;;;;;;;6.33;5.67;;;;;;;;5075216;27;29855;-75
2023/12/27 09:40:58;;;;;;;;;6.00;4.33;;;;;;;;5085585;28;28592;-75
2023/12/27 09:43:24;;;;;;;;;5.00;5.00;;;;;;;;5093442;27;28527;-74
2023/12/27 09:45:51;;;;;;;;;11.67;6.33;;;;;;;;5085366;28;28465;-76
2023/12/27 09:48:17;;;;;;;;;7.00;4.33;;;;;;;;5067203;28;28524;-77
2023/12/27 09:50:42;;;;;;;;;7.67;5.67;;;;;;;;5088663;27;29799;-76
2023/12/27 09:53:09;;;;;;;;;7.67;6.00;;;;;;;;5086116;27;28722;-77
2023/12/27 09:55:34;;;;;;;;;10.00;7.67;;;;;;;;5090448;27;28697;-76
2023/12/27 09:57:59;;;;;;;;;9.00;6.67;;;;;;;;5090770;27;28634;-76
2023/12/27 10:00:27;;;;;;;;;6.33;6.33;;;;;;;;5073275;27;28519;-77
2023/12/27 10:02:54;;;;;;;;;8.00;8.00;;;;;;;;5068393;28;29046;-77
2023/12/27 10:05:24;;;;;;;;;8.00;6.33;;;;;;;;5074348;28;29639;-78
2023/12/27 10:07:50;;;;;;;;;4.67;4.67;;;;;;;;5067137;28;30289;-77
2023/12/27 10:10:18;;;;;;;;;13.33;6.33;;;;;;;;5064422;28;28765;-77
2023/12/27 10:12:43;;;;;;;;;10.00;8.33;;;;;;;;5066871;28;28956;-77
2023/12/27 10:15:08;;;;;;;;;7.67;4.33;;;;;;;;5068729;28;28640;-76
2023/12/27 10:17:34;;;;;;;;;7.33;5.67;;;;;;;;5069937;28;28960;-77
2023/12/27 10:19:59;;;;;;;;;9.00;6.33;;;;;;;;5065893;28;28887;-77
2023/12/27 10:22:25;;;;;;;;;7.33;5.00;;;;;;;;5059713;28;28863;-79
2023/12/27 10:24:51;;;;;;;;;5.67;5.67;;;;;;;;5064378;28;29247;-77
2023/12/27 10:27:20;;;;;;;;;10.00;8.00;;;;;;;;5064682;28;28869;-78
2023/12/27 10:29:48;;;;;;;;;6.33;5.67;;;;;;;;5061728;28;28729;-78
2023/12/27 10:32:14;;;;;;;;;5.33;5.00;;;;;;;;5070878;28;28944;-77
2023/12/27 10:34:40;;;;;;;;;9.67;7.33;;;;;;;;5051438;28;30358;-76
2023/12/27 10:37:11;;;;;;;;;6.00;6.00;;;;;;;;5071150;28;28916;-76
2023/12/27 10:39:37;;;;;;;;;10.00;8.67;;;;;;;;5052993;28;29928;-76
2023/12/27 10:42:03;;;;;;;;;6.33;5.00;;;;;;;;5048717;28;28978;-78
2023/12/27 10:44:30;;;;;;;;;4.00;4.00;;;;;;;;5064887;28;29303;-78
2023/12/27 10:46:56;;;;;;;;;8.33;4.00;;;;;;;;5052028;28;29100;-77
2023/12/27 10:49:22;;;;;;;;;5.00;4.00;;;;;;;;5075689;28;28600;-78
2023/12/27 10:51:48;;;;;;;;;9.33;5.00;;;;;;;;5040787;28;28570;-75
2023/12/27 10:54:13;;;;;;;;;4.00;4.00;;;;;;;;5066050;28;29348;-76
2023/12/27 10:56:39;;;;;;;;;4.67;4.67;;;;;;;;5040850;28;29222;-79
2023/12/27 10:59:08;;;;;;;;;5.67;5.67;;;;;;;;5074982;28;28690;-78
2023/12/27 11:01:37;;;;;;;;;7.67;7.67;;;;;;;;5047947;28;28644;-76
2023/12/27 11:04:09;;;;;;;;;7.33;5.33;;;;;;;;5083553;27;29216;-77
2023/12/27 11:06:38;;;;;;;;;13.33;10.33;;;;;;;;5085452;27;28693;-76
2023/12/27 11:09:07;;;;;;;;;6.67;5.33;;;;;;;;5094356;27;28876;-78
2023/12/27 11:11:35;;;;;;;;;23.33;20.67;;;;;;;;5079490;27;28956;-78
2023/12/27 11:14:03;;;;;;;;;10.00;10.00;;;;;;;;5063345;28;29951;-78
2023/12/27 11:16:31;;;;;;;;;18.67;18.33;;;;;;;;5087714;27;28511;-76
2023/12/27 11:18:57;;;;;;;;;11.00;10.00;;;;;;;;5082080;27;28673;-79
2023/12/27 11:21:23;;;;;;;;;16.00;15.00;;;;;;;;5074145;28;28615;-77
2023/12/27 11:23:48;;;;;;;;;37.67;34.33;;;;;;;;5078791;27;28872;-78
2023/12/27 11:26:14;;;;;;;;;18.00;18.00;;;;;;;;5082299;27;28917;-77
2023/12/27 11:28:41;;;;;;;;;15.33;12.33;;;;;;;;5083528;27;28637;-79
2023/12/27 11:31:07;;;;;;;;;6.67;6.00;;;;;;;;5069347;28;28873;-76
2023/12/27 11:33:33;;;;;;;;;9.33;9.00;;;;;;;;5082728;27;28753;-76
2023/12/27 11:36:00;;;;;;;;;4.67;4.67;;;;;;;;5077403;28;28469;-81
2023/12/27 11:38:25;;;;;;;;;4.00;4.00;;;;;;;;5071864;27;28619;-78
2023/12/27 11:40:51;;;;;;;;;6.33;6.00;;;;;;;;5090460;27;28548;-85
2023/12/27 11:43:19;;;;;;;;;9.67;8.33;;;;;;;;5089684;27;28623;-77
2023/12/27 11:46:03;;;;;;;;;28.00;26.00;;;;;;;;5071354;27;29267;-77
2023/12/27 11:48:33;;;;;;;;;14.00;13.00;;;;;;;;5067049;28;28847;-78
2023/12/27 11:51:02;;;;;;;;;6.33;6.33;;;;;;;;5080368;27;28631;-79
2023/12/27 11:53:28;;;;;;;;;8.33;5.33;;;;;;;;5068427;28;28635;-80
2023/12/27 11:55:54;;;;;;;;;8.00;5.00;;;;;;;;5069593;27;28954;-76
2023/12/27 11:58:33;;;;;;;;;6.00;4.33;;;;;;;;5090333;27;28817;-85
2023/12/27 12:01:19;;;;;;;;;2.33;1.00;;;;;;;;5081866;28;28516;-85
2023/12/27 12:03:46;;;;;;;;;7.00;2.00;;;;;;;;5067598;28;28521;-84
2023/12/27 12:06:29;;;;;;;;;4.00;4.00;;;;;;;;5089805;28;29196;-87
2023/12/27 12:08:57;;;;;;;;;7.33;7.00;;;;;;;;5070217;27;29083;-84
2023/12/27 12:11:24;;;;;;;;;7.00;5.33;;;;;;;;5087182;27;28526;-85
2023/12/27 12:13:50;;;;;;;;;6.67;4.67;;;;;;;;5098572;27;28040;-83
2023/12/27 12:16:15;;;;;;;;;7.33;5.67;;;;;;;;5097153;27;29226;-85
2023/12/27 12:18:41;;;;;;;;;5.00;4.33;;;;;;;;5096032;28;28537;-84
2023/12/27 12:21:07;;;;;;;;;8.67;7.33;;;;;;;;5092909;28;28573;-82
2023/12/27 12:23:33;;;;;;;;;7.00;5.33;;;;;;;;5092492;28;29321;-85
2023/12/27 12:26:07;;;;;;;;;6.33;4.67;;;;;;;;5091981;27;28419;-83
2023/12/27 12:28:33;;;;;;;;;6.33;6.33;;;;;;;;5075361;27;28659;-83
2023/12/27 12:30:59;;;;;;;;;3.00;3.00;;;;;;;;5098895;27;28570;-83
2023/12/27 12:33:25;;;;;;;;;5.00;3.67;;;;;;;;5077225;28;29827;-82
2023/12/27 12:35:51;;;;;;;;;4.33;3.33;;;;;;;;5099349;27;29661;-83
2023/12/27 12:38:18;;;;;;;;;4.00;4.00;;;;;;;;5098276;27;28529;-83
2023/12/27 12:40:43;;;;;;;;;4.67;4.67;;;;;;;;5087471;27;28441;-83
2023/12/27 12:43:09;;;;;;;;;1.33;1.33;;;;;;;;5089032;27;28618;-84
2023/12/27 12:45:35;;;;;;;;;4.00;4.00;;;;;;;;5091066;27;28679;-84
2023/12/27 12:48:01;;;;;;;;;4.67;4.67;;;;;;;;5090411;27;28667;-87
2023/12/27 12:50:26;;;;;;;;;7.33;4.33;;;;;;;;5090919;27;28563;-80
2023/12/27 12:52:51;;;;;;;;;8.00;6.00;;;;;;;;5103885;27;28869;-79
2023/12/27 12:55:18;;;;;;;;;4.00;3.67;;;;;;;;5085858;28;28732;-78
2023/12/27 12:57:43;;;;;;;;;3.00;3.00;;;;;;;;5081849;28;28726;-82
2023/12/27 13:00:09;;;;;;;;;9.33;4.00;;;;;;;;5091580;27;28758;-79
2023/12/27 13:02:34;;;;;;;;;7.33;5.67;;;;;;;;5091521;27;28980;-79
2023/12/27 13:05:00;;;;;;;;;4.33;4.33;;;;;;;;5087049;27;29614;-80
2023/12/27 13:07:26;;;;;;;;;4.00;4.00;;;;;;;;5085687;27;28655;-79
2023/12/27 13:09:59;;;;;;;;;4.00;4.00;;;;;;;;5094820;27;28763;-78
2023/12/27 13:12:25;;;;;;;;;2.00;2.00;;;;;;;;5089199;27;28804;-80
2023/12/27 13:14:51;;;;;;;;;3.00;3.00;;;;;;;;5088885;28;28439;-80
2023/12/27 13:17:17;;;;;;;;;2.33;2.33;;;;;;;;5094436;27;28572;-79
2023/12/27 13:19:42;;;;;;;;;3.00;2.00;;;;;;;;5088738;28;28797;-78
2023/12/27 13:22:09;;;;;;;;;2.00;2.00;;;;;;;;5090435;27;28468;-81
2023/12/27 13:24:34;;;;;;;;;4.33;2.00;;;;;;;;5090561;28;29039;-80
2023/12/27 13:26:59;;;;;;;;;3.00;2.00;;;;;;;;5091327;27;28464;-78
2023/12/27 13:29:24;;;;;;;;;2.33;2.33;;;;;;;;5090389;27;28837;-78
2023/12/27 13:31:50;;;;;;;;;4.00;2.00;;;;;;;;5066448;28;28597;-80
2023/12/27 13:34:15;;;;;;;;;1.33;1.33;;;;;;;;5080899;28;28523;-77
2023/12/27 13:36:41;;;;;;;;;4.00;1.33;;;;;;;;5086761;27;28419;-78
2023/12/27 13:39:07;;;;;;;;;2.33;2.00;;;;;;;;5089822;27;28515;-81
2023/12/27 13:41:35;;;;;;;;;3.00;2.00;;;;;;;;5076609;28;29926;-79
2023/12/27 13:44:00;;;;;;;;;1.33;1.33;;;;;;;;5081443;27;28630;-79
2023/12/27 13:46:26;;;;;;;;;2.00;1.00;;;;;;;;5090230;27;28701;-79
2023/12/27 13:48:51;;;;;;;;;2.67;2.00;;;;;;;;5074082;28;28623;-80
2023/12/27 13:51:17;;;;;;;;;3.67;1.00;;;;;;;;5093114;27;28463;-80
2023/12/27 13:53:42;;;;;;;;;2.67;2.00;;;;;;;;5089894;27;29143;-79
2023/12/27 13:56:08;;;;;;;;;2.00;2.00;;;;;;;;5095326;27;28586;-81
2023/12/27 13:58:35;;;;;;;;;2.00;2.00;;;;;;;;5085830;27;28667;-79
2023/12/27 14:01:00;;;;;;;;;3.33;2.33;;;;;;;;5096139;27;28922;-79
2023/12/27 14:03:29;;;;;;;;;2.33;2.33;;;;;;;;5096825;27;29188;-79
2023/12/27 14:05:55;;;;;;;;;2.00;2.00;;;;;;;;5098455;27;28914;-78
2023/12/27 14:08:20;;;;;;;;;2.00;2.00;;;;;;;;5091600;27;28991;-78
2023/12/27 14:10:45;;;;;;;;;4.00;3.00;;;;;;;;5085116;27;28702;-79
2023/12/27 14:13:11;;;;;;;;;5.33;3.33;;;;;;;;5087838;27;29004;-79
2023/12/27 14:15:36;;;;;;;;;3.00;2.00;;;;;;;;5089445;27;28584;-80
2023/12/27 14:18:01;;;;;;;;;5.00;2.00;;;;;;;;5090427;27;28587;-80
2023/12/27 14:20:27;;;;;;;;;3.67;2.00;;;;;;;;5073208;28;28946;-80
2023/12/27 14:22:52;;;;;;;;;2.00;2.00;;;;;;;;5088383;27;28773;-78
2023/12/27 14:25:17;;;;;;;;;1.33;1.33;;;;;;;;5085497;27;28663;-79
2023/12/27 14:27:43;;;;;;;;;2.00;2.00;;;;;;;;5087527;27;28534;-79
2023/12/27 14:30:10;;;;;;;;;1.67;1.67;;;;;;;;5076191;28;29629;-79